Terminal Aerodrome Forecast
Issued by NWS

Home | Current Version | Previous Version | Text Only | Print | Product List | Glossary On
Versions: 1 2 3 4 5 6 7 8 9 10 11 12 13
345
FTUS42 KILM 182324
TAFCRE
TAF
KCRE 182324Z 1900/1924 23012G18KT P6SM SCT250
     FM190400 21012G22KT P6SM SCT250
     FM190900 24013G24KT P6SM VCSH BKN035 BKN250
     FM191200 29010KT P6SM SCT030 BKN100
     FM191400 31011KT P6SM SKC
     FM191900 30010KT P6SM SKC=

USA.gov is the U.S. government's official web portal to all federal, state and local government web resources and services.